Mount Pearl, Canada
Current Conditions -  °F | °C
As of 12:00 AM on Monday 22 Dec 2014 (Local Time) from CYYT Reporting Station
Overcast Overcast  
Wind Chill: 15°   Ceiling: 1500
Heat Index: 25°   Visibility: 15mi
Dew Point: 21°   Wind: 10mph
Humidity: 86%   Direction: 320°NW
Pressure: 30.29"   Gusts: NA
Location:  47.52°N, 52.82°W
Report Text: CYYT 220300Z 32009KT 15SM OVC015 M04/M06 A3029 RMK SC8 SLP265
Loading
Personal Weather Stations






























Interactive Weather Map New forecast layout! Learn more

10-Day Weather Forecast

Advertisements
Track Severe Weather on mobile